Time;durP1;ratioP1;P1;durP2;ratioP2;P2;SDS_P1;SDS_P2;PMS_P1;PMS_P2;Temp;Humidity;BMP_temperature;BMP_pressure;BME280_temperature;BME280_humidity;BME280_pressure;Samples;Min_cycle;Max_cycle;Signal;HPM_P1;HPM_P2
2022/09/16 00:01:12;;;;;;;9.20;2.35;;;;;;;-142.57;100.00;68379.81;5029446;28;20028;-74
2022/09/16 00:03:38;;;;;;;5.45;2.35;;;;;;;-142.57;100.00;68379.81;5032239;28;20581;-74
2022/09/16 00:06:03;;;;;;;6.32;2.63;;;;;;;-142.57;100.00;68379.81;5033831;28;20037;-74
2022/09/16 00:08:29;;;;;;;4.03;2.40;;;;;;;-142.57;100.00;68379.81;5032532;28;20021;-74
2022/09/16 00:10:59;;;;;;;8.85;2.65;;;;;;;-142.57;100.00;68379.81;5030322;28;20768;-74
2022/09/16 00:13:24;;;;;;;8.07;3.10;;;;;;;-142.57;100.00;68379.81;5031724;28;20975;-75
2022/09/16 00:15:49;;;;;;;12.75;3.53;;;;;;;-142.57;100.00;68379.81;5030313;28;20036;-75
2022/09/16 00:18:15;;;;;;;6.40;2.10;;;;;;;-142.57;100.00;68379.81;5030542;28;20565;-74
2022/09/16 00:20:50;;;;;;;8.50;3.03;;;;;;;-142.57;100.00;68379.81;5023392;28;20072;-74
2022/09/16 00:23:16;;;;;;;7.88;2.72;;;;;;;-142.57;100.00;68379.81;5043820;28;20033;-74
2022/09/16 00:25:41;;;;;;;7.80;3.08;;;;;;;-142.57;100.00;68379.81;5013843;28;20078;-75
2022/09/16 00:28:07;;;;;;;6.72;2.70;;;;;;;-142.57;100.00;68379.81;5030603;28;20542;-75
2022/09/16 00:30:32;;;;;;;6.15;2.50;;;;;;;-142.57;100.00;68379.81;5029881;28;20047;-74
2022/09/16 00:32:58;;;;;;;13.85;3.20;;;;;;;-142.57;100.00;68379.81;5015718;28;20118;-75
2022/09/16 00:35:23;;;;;;;5.22;2.50;;;;;;;-142.57;100.00;68379.81;5044638;28;20131;-75
2022/09/16 00:37:48;;;;;;;7.43;2.72;;;;;;;-142.57;100.00;68379.81;5031484;28;20542;-75
2022/09/16 00:40:14;;;;;;;9.27;2.80;;;;;;;-142.57;100.00;68379.81;5022230;28;20094;-74
2022/09/16 00:42:40;;;;;;;6.00;2.70;;;;;;;-142.57;100.00;68379.81;5030157;28;20057;-74
2022/09/16 00:45:17;;;;;;;8.07;3.13;;;;;;;-142.57;100.00;68379.81;5021106;28;20815;-75
2022/09/16 00:48:15;;;;;;;5.40;2.50;;;;;;;-142.57;100.00;68379.81;5028592;28;20353;-75
2022/09/16 00:50:47;;;;;;;6.20;3.03;;;;;;;-142.57;100.00;68379.81;5025697;28;20914;-75
2022/09/16 00:53:26;;;;;;;5.78;2.63;;;;;;;-142.57;100.00;68379.81;5029439;28;20025;-75
2022/09/16 00:55:54;;;;;;;10.90;3.20;;;;;;;-142.57;100.00;68379.81;5026247;28;20060;-75
2022/09/16 00:58:49;;;;;;;5.43;2.53;;;;;;;-142.57;100.00;68379.81;5031562;28;20052;-76
2022/09/16 01:01:14;;;;;;;13.60;2.78;;;;;;;-142.57;100.00;68379.81;5027264;28;20810;-73
2022/09/16 01:03:49;;;;;;;9.95;2.40;;;;;;;-142.57;100.00;68379.81;5032291;28;20060;-73
2022/09/16 01:06:17;;;;;;;4.38;2.38;;;;;;;-142.57;100.00;68379.81;5032313;28;20585;-74
2022/09/16 01:08:42;;;;;;;7.50;2.55;;;;;;;-142.57;100.00;68379.81;5029816;28;20037;-74
2022/09/16 01:11:08;;;;;;;7.03;2.60;;;;;;;-142.57;100.00;68379.81;5032003;28;20040;-75
2022/09/16 01:13:34;;;;;;;5.72;2.85;;;;;;;-142.57;100.00;68379.81;5021597;28;20037;-74
2022/09/16 01:16:29;;;;;;;5.22;2.53;;;;;;;-142.57;100.00;68379.81;5034311;28;20036;-74
2022/09/16 01:19:17;;;;;;;9.48;2.45;;;;;;;-142.57;100.00;68379.81;5032330;28;20021;-74
2022/09/16 01:21:44;;;;;;;6.57;2.50;;;;;;;-142.57;100.00;68379.81;5026230;28;20039;-74
2022/09/16 01:24:16;;;;;;;4.72;2.30;;;;;;;-142.57;100.00;68379.81;5030244;28;20127;-76
2022/09/16 01:26:56;;;;;;;9.73;2.70;;;;;;;-142.57;100.00;68379.81;5035399;28;20029;-75
2022/09/16 01:29:43;;;;;;;7.95;2.25;;;;;;;-142.57;100.00;68379.81;5025579;28;20017;-75
2022/09/16 01:32:22;;;;;;;7.25;2.22;;;;;;;-142.57;100.00;68379.81;5034191;28;20078;-75
2022/09/16 01:34:56;;;;;;;8.02;2.72;;;;;;;-142.57;100.00;68379.81;5033795;28;20448;-75
2022/09/16 01:37:37;;;;;;;5.93;2.63;;;;;;;-142.57;100.00;68379.81;5033751;28;20072;-75
2022/09/16 01:40:27;;;;;;;14.00;2.97;;;;;;;-142.57;100.00;68379.81;5021805;28;20036;-76
2022/09/16 01:43:02;;;;;;;5.65;2.33;;;;;;;-142.57;100.00;68379.81;5019385;28;20036;-75
2022/09/16 01:45:47;;;;;;;6.10;2.45;;;;;;;-142.57;100.00;68379.81;5032541;28;20037;-75
2022/09/16 01:48:31;;;;;;;10.95;1.80;;;;;;;-142.57;100.00;68379.81;5033203;28;20021;-75
2022/09/16 01:51:13;;;;;;;4.00;1.83;;;;;;;-142.57;100.00;68379.81;5036884;28;20041;-75
2022/09/16 01:53:51;;;;;;;7.03;1.70;;;;;;;-142.57;100.00;68379.81;5030675;28;20043;-75
2022/09/16 01:56:16;;;;;;;11.50;2.30;;;;;;;-142.57;100.00;68379.81;5027741;28;20086;-75
2022/09/16 01:58:55;;;;;;;5.68;2.17;;;;;;;-142.57;100.00;68379.81;5031222;28;20029;-75
2022/09/16 02:01:46;;;;;;;11.13;2.90;;;;;;;-142.57;100.00;68379.81;5031334;28;20183;-75
2022/09/16 02:04:18;;;;;;;5.78;2.30;;;;;;;-142.57;100.00;68379.81;5022100;28;20087;-75
2022/09/16 02:06:45;;;;;;;6.68;2.88;;;;;;;-142.57;100.00;68379.81;5028980;28;20249;-75
2022/09/16 02:09:16;;;;;;;7.40;2.25;;;;;;;-142.57;100.00;68379.81;5027509;28;20029;-75
2022/09/16 02:11:42;;;;;;;6.18;2.58;;;;;;;-142.57;100.00;68379.81;5026004;28;20037;-75
2022/09/16 02:14:13;;;;;;;6.30;2.55;;;;;;;-142.57;100.00;68379.81;5026461;28;20150;-75
2022/09/16 02:16:43;;;;;;;6.50;2.53;;;;;;;-142.57;100.00;68379.81;5023426;28;20063;-76
2022/09/16 02:19:11;;;;;;;9.07;2.50;;;;;;;-142.57;100.00;68379.81;5023390;28;20029;-75
2022/09/16 02:21:38;;;;;;;6.50;2.20;;;;;;;-142.57;100.00;68379.81;5028219;28;20087;-75
2022/09/16 02:24:09;;;;;;;8.10;2.58;;;;;;;-142.57;100.00;68379.81;5027459;28;20934;-76
2022/09/16 02:26:38;;;;;;;5.00;2.13;;;;;;;-142.57;100.00;68379.81;5019491;28;20041;-75
2022/09/16 02:29:10;;;;;;;5.05;2.10;;;;;;;-142.57;100.00;68379.81;5030645;28;20037;-76
2022/09/16 02:31:36;;;;;;;7.50;2.03;;;;;;;-142.57;100.00;68379.81;5029610;28;20799;-76
2022/09/16 02:34:05;;;;;;;5.35;2.47;;;;;;;-142.57;100.00;68379.81;5027342;28;20106;-75
2022/09/16 02:36:32;;;;;;;6.68;2.35;;;;;;;-142.57;100.00;68379.81;5039355;28;20033;-75
2022/09/16 02:39:02;;;;;;;6.85;2.33;;;;;;;-142.57;100.00;68379.81;5043629;28;20029;-75
2022/09/16 02:41:28;;;;;;;3.30;1.73;;;;;;;-142.57;100.00;68379.81;5029345;28;20032;-75
2022/09/16 02:43:53;;;;;;;6.57;2.25;;;;;;;-142.57;100.00;68379.81;5029774;28;20039;-75
2022/09/16 02:47:03;;;;;;;8.55;2.47;;;;;;;-142.57;100.00;68379.81;5028017;28;20576;-75
2022/09/16 02:49:58;;;;;;;10.25;2.40;;;;;;;-142.57;100.00;68379.81;5029273;28;20041;-75
2022/09/16 02:52:39;;;;;;;6.22;2.38;;;;;;;-142.57;100.00;68379.81;5028568;28;20074;-75
2022/09/16 02:55:32;;;;;;;5.63;2.58;;;;;;;-142.57;100.00;68379.81;5028597;28;20082;-75
2022/09/16 02:57:57;;;;;;;7.60;1.58;;;;;;;-142.57;100.00;68379.81;5031738;28;20032;-75
2022/09/16 03:00:24;;;;;;;11.65;2.58;;;;;;;-142.57;100.00;68379.81;5029273;28;20029;-75
2022/09/16 03:02:50;;;;;;;6.80;2.33;;;;;;;-142.57;100.00;68379.81;5030867;28;20033;-75
2022/09/16 03:05:15;;;;;;;5.00;1.88;;;;;;;-142.57;100.00;68379.81;5027473;28;20083;-76
2022/09/16 03:07:41;;;;;;;10.32;2.38;;;;;;;-142.57;100.00;68379.81;5009911;28;20033;-75
2022/09/16 03:10:11;;;;;;;6.32;2.05;;;;;;;-142.57;100.00;68379.81;5024354;28;20118;-75
2022/09/16 03:13:05;;;;;;;5.90;2.25;;;;;;;-142.57;100.00;68379.81;5029797;28;20043;-75
2022/09/16 03:16:13;;;;;;;7.25;2.50;;;;;;;-142.57;100.00;68379.81;5028050;28;20044;-75
2022/09/16 03:18:44;;;;;;;5.55;1.70;;;;;;;-142.57;100.00;68379.81;5026171;28;20060;-75
2022/09/16 03:21:23;;;;;;;4.32;2.03;;;;;;;-142.57;100.00;68379.81;5017691;28;20041;-75
2022/09/16 03:24:27;;;;;;;8.23;2.65;;;;;;;-142.57;100.00;68379.81;5029022;28;20044;-75
2022/09/16 03:27:09;;;;;;;7.18;2.15;;;;;;;-142.57;100.00;68379.81;5055240;28;20063;-77
2022/09/16 03:30:17;;;;;;;5.13;1.80;;;;;;;-142.57;100.00;68379.81;5024855;28;20132;-76
2022/09/16 03:32:49;;;;;;;7.82;2.42;;;;;;;-142.57;100.00;68379.81;5009860;28;20041;-75
2022/09/16 03:35:22;;;;;;;6.03;2.03;;;;;;;-142.57;100.00;68379.81;5027647;28;20564;-76
2022/09/16 03:37:48;;;;;;;9.55;2.13;;;;;;;-142.57;100.00;68379.81;5010890;28;20438;-75
2022/09/16 03:40:16;;;;;;;6.22;2.28;;;;;;;-142.57;100.00;68379.81;5029898;28;20033;-75
2022/09/16 03:42:42;;;;;;;7.50;2.10;;;;;;;-142.57;100.00;68379.81;5028853;28;20032;-75
2022/09/16 03:45:14;;;;;;;7.88;2.03;;;;;;;-142.57;100.00;68379.81;5028731;28;20043;-75
2022/09/16 03:47:39;;;;;;;5.30;2.08;;;;;;;-142.57;100.00;68379.81;5031066;28;20044;-75
2022/09/16 03:50:05;;;;;;;7.30;2.03;;;;;;;-142.57;100.00;68379.81;5028097;28;20088;-75
2022/09/16 03:52:30;;;;;;;5.57;2.15;;;;;;;-142.57;100.00;68379.81;5027081;28;20068;-74
2022/09/16 03:54:56;;;;;;;9.82;3.13;;;;;;;-142.57;100.00;68379.81;5026888;28;20029;-74
2022/09/16 03:57:21;;;;;;;6.68;1.60;;;;;;;-142.57;100.00;68379.81;5026331;28;20860;-74
2022/09/16 03:59:46;;;;;;;10.70;2.17;;;;;;;-142.57;100.00;68379.81;5021705;28;20028;-74
2022/09/16 04:02:12;;;;;;;5.88;1.60;;;;;;;-142.57;100.00;68379.81;5030701;28;20033;-74
2022/09/16 04:04:37;;;;;;;9.15;1.92;;;;;;;-142.57;100.00;68379.81;5021242;28;20239;-75
2022/09/16 04:07:02;;;;;;;4.22;1.83;;;;;;;-142.57;100.00;68379.81;5029720;28;20090;-75
2022/09/16 04:09:28;;;;;;;7.43;1.95;;;;;;;-142.57;100.00;68379.81;5029262;28;20021;-75
2022/09/16 04:11:53;;;;;;;3.85;1.63;;;;;;;-142.57;100.00;68379.81;5020584;28;20037;-76
2022/09/16 04:14:19;;;;;;;5.05;1.98;;;;;;;-142.57;100.00;68379.81;5022075;28;20029;-76
2022/09/16 04:16:44;;;;;;;7.22;1.83;;;;;;;-142.57;100.00;68379.81;5021802;28;20848;-75
2022/09/16 04:19:12;;;;;;;5.22;1.77;;;;;;;-142.57;100.00;68379.81;5026440;28;20025;-77
2022/09/16 04:21:37;;;;;;;6.82;1.80;;;;;;;-142.57;100.00;68379.81;5033071;28;20058;-75
2022/09/16 04:24:03;;;;;;;4.43;2.03;;;;;;;-142.57;100.00;68379.81;5034357;28;20059;-75
2022/09/16 04:26:28;;;;;;;7.75;1.85;;;;;;;-142.57;100.00;68379.81;5032779;28;20032;-75
2022/09/16 04:28:53;;;;;;;4.30;1.58;;;;;;;-142.57;100.00;68379.81;5037665;28;20044;-77
2022/09/16 04:31:19;;;;;;;5.03;2.00;;;;;;;-142.57;100.00;68379.81;5039279;28;20493;-76
2022/09/16 04:33:44;;;;;;;7.85;2.25;;;;;;;-142.57;100.00;68379.81;5031161;28;20033;-77
2022/09/16 04:36:12;;;;;;;7.88;1.98;;;;;;;-142.57;100.00;68379.81;5030903;28;20029;-76
2022/09/16 04:38:39;;;;;;;5.07;1.60;;;;;;;-142.57;100.00;68379.81;5032269;28;20119;-76
2022/09/16 04:41:07;;;;;;;4.63;1.83;;;;;;;-142.57;100.00;68379.81;5033395;28;20102;-75
2022/09/16 04:43:33;;;;;;;5.95;2.00;;;;;;;-142.57;100.00;68379.81;5032888;28;20097;-75
2022/09/16 04:45:59;;;;;;;6.47;1.70;;;;;;;-142.57;100.00;68379.81;5039681;28;20487;-76
2022/09/16 04:48:24;;;;;;;17.35;2.10;;;;;;;-142.57;100.00;68379.81;5013449;28;20500;-76
2022/09/16 04:50:51;;;;;;;4.93;1.73;;;;;;;-142.57;100.00;68379.81;5023365;28;20033;-76
2022/09/16 04:53:18;;;;;;;6.32;1.52;;;;;;;-142.57;100.00;68379.81;5029600;28;20029;-74
2022/09/16 04:55:43;;;;;;;5.75;1.90;;;;;;;-142.57;100.00;68379.81;5027013;28;20029;-76
2022/09/16 04:58:09;;;;;;;6.32;2.08;;;;;;;-142.57;100.00;68379.81;5027850;28;20928;-73
2022/09/16 05:00:34;;;;;;;6.03;1.52;;;;;;;-142.57;100.00;68379.81;5031162;28;20029;-76
2022/09/16 05:02:59;;;;;;;4.70;1.30;;;;;;;-142.57;100.00;68379.81;5029515;28;20854;-76
2022/09/16 05:05:25;;;;;;;6.20;2.10;;;;;;;-142.57;100.00;68379.81;5026783;28;20021;-73
2022/09/16 05:07:51;;;;;;;3.15;1.50;;;;;;;-142.57;100.00;68379.81;5029150;28;20879;-74
2022/09/16 05:10:16;;;;;;;6.30;1.60;;;;;;;-142.57;100.00;68379.81;5027496;28;20249;-76
2022/09/16 05:12:42;;;;;;;5.43;2.17;;;;;;;-142.57;100.00;68379.81;5032653;28;20094;-74
2022/09/16 05:15:08;;;;;;;4.80;1.80;;;;;;;-142.57;100.00;68379.81;5032377;28;20807;-74
2022/09/16 05:17:33;;;;;;;5.75;1.15;;;;;;;-142.57;100.00;68379.81;5033930;28;20090;-74
2022/09/16 05:19:59;;;;;;;5.80;2.10;;;;;;;-142.57;100.00;68379.81;5018815;28;20033;-74
2022/09/16 05:22:24;;;;;;;9.27;1.90;;;;;;;-142.57;100.00;68379.81;5025543;28;20052;-75
2022/09/16 05:24:49;;;;;;;4.68;1.67;;;;;;;-142.57;100.00;68379.81;5014198;28;20033;-74
2022/09/16 05:27:15;;;;;;;4.68;1.67;;;;;;;-142.57;100.00;68379.81;5031107;28;20566;-74
2022/09/16 05:29:40;;;;;;;6.32;1.83;;;;;;;-142.57;100.00;68379.81;5038926;28;20036;-74
2022/09/16 05:32:06;;;;;;;3.53;1.67;;;;;;;-142.57;100.00;68379.81;5004439;28;20037;-74
2022/09/16 05:34:34;;;;;;;3.35;1.17;;;;;;;-142.57;100.00;68379.81;5008151;28;20035;-72
2022/09/16 05:37:00;;;;;;;5.00;1.90;;;;;;;-142.57;100.00;68379.81;5010180;28;20069;-73
2022/09/16 05:39:25;;;;;;;4.07;1.77;;;;;;;-142.57;100.00;68379.81;5009755;28;20041;-73
2022/09/16 05:41:56;;;;;;;9.73;2.00;;;;;;;-142.57;100.00;68379.81;5011812;28;20021;-74
2022/09/16 05:44:22;;;;;;;7.25;1.60;;;;;;;-142.57;100.00;68379.81;5003807;28;20032;-74
2022/09/16 05:46:47;;;;;;;6.55;1.77;;;;;;;-142.57;100.00;68379.81;5017548;28;20086;-73
2022/09/16 05:49:19;;;;;;;5.75;2.00;;;;;;;-142.57;100.00;68379.81;5010287;28;20025;-74
2022/09/16 05:51:44;;;;;;;3.85;1.70;;;;;;;-142.57;100.00;68379.81;5009492;28;20025;-73
2022/09/16 05:54:10;;;;;;;7.85;1.92;;;;;;;-142.57;100.00;68379.81;5011409;28;20029;-72
2022/09/16 05:56:35;;;;;;;8.90;2.35;;;;;;;-142.57;100.00;68379.81;5013453;28;20031;-73
2022/09/16 05:59:01;;;;;;;8.07;2.17;;;;;;;-142.57;100.00;68379.81;5013245;28;20912;-74
2022/09/16 06:01:32;;;;;;;4.35;2.03;;;;;;;-142.57;100.00;68379.81;5013264;28;20028;-74
2022/09/16 06:04:00;;;;;;;6.60;1.67;;;;;;;-142.57;100.00;68379.81;5015244;28;20749;-74
2022/09/16 06:06:28;;;;;;;3.33;1.30;;;;;;;-142.57;100.00;68379.81;5012948;28;20815;-74
2022/09/16 06:08:58;;;;;;;4.18;1.92;;;;;;;-142.57;100.00;68379.81;5012011;28;20156;-75
2022/09/16 06:11:25;;;;;;;12.23;2.42;;;;;;;-142.57;100.00;68379.81;5018675;28;20039;-74
2022/09/16 06:13:54;;;;;;;6.95;2.28;;;;;;;-142.57;100.00;68379.81;5016351;28;20036;-73
2022/09/16 06:16:20;;;;;;;5.30;1.98;;;;;;;-142.57;100.00;68379.81;5016241;28;20127;-73
2022/09/16 06:18:45;;;;;;;8.55;2.10;;;;;;;-142.57;100.00;68379.81;5015064;28;20016;-73
2022/09/16 06:21:11;;;;;;;6.97;1.52;;;;;;;-142.57;100.00;68379.81;5014484;28;20037;-73
2022/09/16 06:23:38;;;;;;;6.40;1.60;;;;;;;-142.57;100.00;68379.81;5001946;28;20040;-73
2022/09/16 06:26:10;;;;;;;4.30;1.50;;;;;;;-142.57;100.00;68379.81;5011162;28;20874;-74
2022/09/16 06:28:36;;;;;;;6.00;1.58;;;;;;;-142.57;100.00;68379.81;5026954;28;20036;-75
2022/09/16 06:31:02;;;;;;;3.40;1.27;;;;;;;-142.57;100.00;68379.81;5026381;28;20152;-73
2022/09/16 06:33:27;;;;;;;7.20;1.50;;;;;;;-142.57;100.00;68379.81;5023716;28;20785;-73
2022/09/16 06:35:53;;;;;;;5.80;1.88;;;;;;;-142.57;100.00;68379.81;5015568;28;20045;-75
2022/09/16 06:38:18;;;;;;;5.00;1.60;;;;;;;-142.57;100.00;68379.81;5021578;28;20040;-72
2022/09/16 06:40:44;;;;;;;5.47;1.52;;;;;;;-142.57;100.00;68379.81;5021948;28;20029;-74
2022/09/16 06:43:09;;;;;;;4.82;1.50;;;;;;;-142.57;100.00;68379.81;5019662;28;20033;-75
2022/09/16 06:45:34;;;;;;;4.82;1.80;;;;;;;-142.57;100.00;68379.81;5018447;28;20037;-75
2022/09/16 06:48:00;;;;;;;4.20;1.80;;;;;;;-142.57;100.00;68379.81;5016487;28;20036;-76
2022/09/16 06:50:25;;;;;;;3.78;1.77;;;;;;;-142.57;100.00;68379.81;5021832;28;20754;-75
2022/09/16 06:52:51;;;;;;;10.55;2.33;;;;;;;-142.57;100.00;68379.81;5021947;28;20041;-76
2022/09/16 06:55:16;;;;;;;4.25;1.35;;;;;;;-142.57;100.00;68379.81;5019174;28;20152;-75
2022/09/16 06:57:42;;;;;;;3.83;1.75;;;;;;;-142.57;100.00;68379.81;5020702;28;20083;-75
2022/09/16 07:00:08;;;;;;;5.88;1.70;;;;;;;-142.57;100.00;68379.81;5014635;28;20041;-76
2022/09/16 07:02:34;;;;;;;5.30;1.38;;;;;;;-142.57;100.00;68379.81;5053408;28;20651;-77
2022/09/16 07:05:01;;;;;;;6.55;1.80;;;;;;;-142.57;100.00;68379.81;5024038;28;20060;-74
2022/09/16 07:07:29;;;;;;;5.60;1.40;;;;;;;-142.57;100.00;68379.81;5020005;28;20884;-75
2022/09/16 07:09:55;;;;;;;7.57;1.80;;;;;;;-142.57;100.00;68379.81;5014839;28;20028;-76
2022/09/16 07:12:21;;;;;;;4.75;1.52;;;;;;;-142.57;100.00;68379.81;5018146;28;20036;-76
2022/09/16 07:14:47;;;;;;;6.82;1.80;;;;;;;-142.57;100.00;68379.81;5022188;28;20025;-74
2022/09/16 07:17:12;;;;;;;9.38;1.75;;;;;;;-142.57;100.00;68379.81;5022222;28;20041;-73
2022/09/16 07:19:37;;;;;;;6.18;1.95;;;;;;;-142.57;100.00;68379.81;5023144;28;20029;-75
2022/09/16 07:22:03;;;;;;;6.75;1.85;;;;;;;-142.57;100.00;68379.81;5022522;28;20025;-75
2022/09/16 07:24:28;;;;;;;17.13;2.17;;;;;;;-142.57;100.00;68379.81;5021043;28;20029;-75
2022/09/16 07:26:54;;;;;;;5.38;2.25;;;;;;;-142.57;100.00;68379.81;5024036;28;20029;-75
2022/09/16 07:29:19;;;;;;;4.78;1.70;;;;;;;-142.57;100.00;68379.81;5023581;28;20096;-75
2022/09/16 07:31:45;;;;;;;6.65;2.00;;;;;;;-142.57;100.00;68379.81;5019185;28;20052;-74
2022/09/16 07:34:11;;;;;;;11.43;2.25;;;;;;;-142.57;100.00;68379.81;4997097;28;20049;-78
2022/09/16 07:36:42;;;;;;;9.30;1.77;;;;;;;-142.57;100.00;68379.81;5011368;28;20036;-78
2022/09/16 07:39:09;;;;;;;6.00;1.77;;;;;;;-142.57;100.00;68379.81;5024695;28;20037;-75
2022/09/16 07:41:37;;;;;;;4.80;1.58;;;;;;;-142.57;100.00;68379.81;5015091;28;20025;-75
2022/09/16 07:44:03;;;;;;;6.93;2.28;;;;;;;-142.57;100.00;68379.81;5026011;28;20033;-76
2022/09/16 07:46:31;;;;;;;6.38;1.70;;;;;;;-142.57;100.00;68379.81;5025332;28;20576;-73
2022/09/16 07:48:58;;;;;;;4.60;1.40;;;;;;;-142.57;100.00;68379.81;5028364;28;20037;-75
2022/09/16 07:51:24;;;;;;;6.55;1.95;;;;;;;-142.57;100.00;68379.81;5022401;28;20025;-76
2022/09/16 07:54:02;;;;;;;4.43;1.42;;;;;;;-142.57;100.00;68379.81;5021042;28;20043;-76
2022/09/16 07:56:29;;;;;;;4.18;1.40;;;;;;;-142.57;100.00;68379.81;5019636;28;20946;-77
2022/09/16 07:58:56;;;;;;;5.45;2.13;;;;;;;-142.57;100.00;68379.81;5020666;28;20029;-76
2022/09/16 08:01:22;;;;;;;3.80;1.65;;;;;;;-142.57;100.00;68379.81;5016376;28;20028;-74
2022/09/16 08:03:47;;;;;;;5.63;1.30;;;;;;;-142.57;100.00;68379.81;5023201;28;20035;-73
2022/09/16 08:06:15;;;;;;;4.68;1.35;;;;;;;-142.57;100.00;68379.81;5018794;28;20726;-74
2022/09/16 08:08:40;;;;;;;3.88;1.50;;;;;;;-142.57;100.00;68379.81;5036705;28;20155;-76
2022/09/16 08:11:07;;;;;;;5.25;1.38;;;;;;;-142.57;100.00;68379.81;5048375;28;20100;-75
2022/09/16 08:13:33;;;;;;;3.80;1.38;;;;;;;-142.57;100.00;68379.81;5046434;28;20182;-75
2022/09/16 08:16:01;;;;;;;8.02;1.77;;;;;;;-142.57;100.00;68379.81;5048373;28;20028;-73
2022/09/16 08:18:27;;;;;;;6.20;1.58;;;;;;;-142.57;100.00;68379.81;5036923;28;20111;-75
2022/09/16 08:20:52;;;;;;;4.90;1.60;;;;;;;-142.57;100.00;68379.81;5042782;28;20037;-74
2022/09/16 08:23:18;;;;;;;3.92;1.25;;;;;;;-142.57;100.00;68379.81;5057414;28;20029;-73
2022/09/16 08:25:44;;;;;;;3.67;1.17;;;;;;;-142.57;100.00;68379.81;5054144;28;20036;-75
2022/09/16 08:28:13;;;;;;;6.20;1.42;;;;;;;-142.57;100.00;68379.81;5064178;28;20059;-78
2022/09/16 08:30:39;;;;;;;4.15;1.48;;;;;;;-142.57;100.00;68379.81;5066591;28;20514;-75
2022/09/16 08:33:05;;;;;;;5.20;1.38;;;;;;;-142.57;100.00;68379.81;5059482;28;20063;-75
2022/09/16 08:35:30;;;;;;;2.67;1.23;;;;;;;-142.57;100.00;68379.81;5069644;28;20028;-74
2022/09/16 08:37:56;;;;;;;4.68;1.58;;;;;;;-142.57;100.00;68379.81;5070011;28;20112;-73
2022/09/16 08:40:23;;;;;;;3.67;1.42;;;;;;;-142.57;100.00;68379.81;5052901;28;20033;-79
2022/09/16 08:42:57;;;;;;;6.72;2.20;;;;;;;-142.57;100.00;68379.81;5049619;28;20052;-79
2022/09/16 08:45:28;;;;;;;;;;;;;;;-142.57;100.00;68379.81;5058897;28;20090;-75
2022/09/16 08:48:28;;;;;;;6.75;1.95;;;;;;;-142.57;100.00;68379.81;5080329;28;19916;-77
2022/09/16 08:50:53;;;;;;;2.95;1.02;;;;;;;-142.57;100.00;68379.81;5037886;28;20052;-76
2022/09/16 08:53:25;;;;;;;3.95;1.27;;;;;;;-142.57;100.00;68379.81;5044937;28;20024;-75
2022/09/16 08:55:51;;;;;;;4.70;1.30;;;;;;;-142.57;100.00;68379.81;5050954;28;20029;-76
2022/09/16 08:58:17;;;;;;;5.60;1.33;;;;;;;-142.57;100.00;68379.81;5059493;28;20025;-74
2022/09/16 09:00:46;;;;;;;4.57;1.60;;;;;;;-142.57;100.00;68379.81;5049800;28;20029;-74
2022/09/16 09:03:20;;;;;;;6.65;1.35;;;;;;;-142.57;100.00;68379.81;5039434;28;20143;-72
2022/09/16 09:05:50;;;;;;;4.07;1.70;;;;;;;-142.57;100.00;68379.81;5061682;28;20071;-74
2022/09/16 09:08:25;;;;;;;3.20;1.20;;;;;;;-142.57;100.00;68379.81;5037457;28;20035;-77
2022/09/16 09:11:04;;;;;;;4.15;1.33;;;;;;;-142.57;100.00;68379.81;5049520;28;20029;-77
2022/09/16 09:13:48;;;;;;;3.13;1.13;;;;;;;-142.57;100.00;68379.81;5049370;28;20044;-74
2022/09/16 09:16:35;;;;;;;5.57;1.75;;;;;;;-142.57;100.00;68379.81;5051166;28;20036;-76
2022/09/16 09:19:30;;;;;;;2.70;1.10;;;;;;;-142.57;100.00;68379.81;5082342;28;20044;-73
2022/09/16 09:22:18;;;;;;;6.95;1.55;;;;;;;-142.57;100.00;68379.81;5061401;28;20398;-73
2022/09/16 09:24:59;;;;;;;4.15;1.40;;;;;;;-142.57;100.00;68379.81;5060352;28;20029;-72
2022/09/16 09:28:16;;;;;;;5.50;1.20;;;;;;;-142.57;100.00;68379.81;5065532;28;20064;-76
2022/09/16 09:30:52;;;;;;;3.90;1.50;;;;;;;-142.57;100.00;68379.81;5052908;28;20052;-76
2022/09/16 09:33:35;;;;;;;4.80;1.40;;;;;;;-142.57;100.00;68379.81;5064979;28;20090;-75
2022/09/16 09:36:31;;;;;;;4.97;1.30;;;;;;;-142.57;100.00;68379.81;5052150;28;20127;-77
2022/09/16 09:39:09;;;;;;;5.03;1.35;;;;;;;-142.57;100.00;68379.81;5050649;28;20028;-76
2022/09/16 09:41:43;;;;;;;3.67;1.20;;;;;;;-142.57;100.00;68379.81;5052151;28;20029;-75
2022/09/16 09:44:20;;;;;;;5.03;1.40;;;;;;;-142.57;100.00;68379.81;5053317;28;20482;-78
2022/09/16 09:46:47;;;;;;;6.35;1.38;;;;;;;-142.57;100.00;68379.81;5054086;28;20109;-74
2022/09/16 09:49:17;;;;;;;6.90;1.77;;;;;;;-142.57;100.00;68379.81;5044551;28;20022;-75
2022/09/16 09:51:43;;;;;;;3.10;1.20;;;;;;;-142.57;100.00;68379.81;5068866;28;20025;-76
2022/09/16 09:54:30;;;;;;;2.03;0.70;;;;;;;-142.57;100.00;68379.81;5052766;28;20032;-80
2022/09/16 09:57:01;;;;;;;5.53;1.63;;;;;;;-142.57;100.00;68379.81;5054573;28;20463;-78
2022/09/16 09:59:58;;;;;;;13.40;1.55;;;;;;;-142.57;100.00;68379.81;5052496;28;20032;-75
2022/09/16 10:02:24;;;;;;;5.30;1.77;;;;;;;-142.57;100.00;68379.81;5052512;28;20044;-74
2022/09/16 10:04:49;;;;;;;3.20;1.15;;;;;;;-142.57;100.00;68379.81;5055322;28;20383;-77
2022/09/16 10:07:18;;;;;;;5.72;1.52;;;;;;;-142.57;100.00;68379.81;5069736;28;20115;-77
2022/09/16 10:09:48;;;;;;;3.47;1.33;;;;;;;-142.57;100.00;68379.81;5065429;28;20025;-76
2022/09/16 10:12:13;;;;;;;3.05;1.13;;;;;;;-142.57;100.00;68379.81;5069561;28;20043;-76
2022/09/16 10:14:39;;;;;;;7.65;1.45;;;;;;;-142.57;100.00;68379.81;5066009;28;20032;-77
2022/09/16 10:17:13;;;;;;;4.70;1.38;;;;;;;-142.57;100.00;68379.81;5049534;28;20033;-77
2022/09/16 10:19:47;;;;;;;;;;;;;;;-142.57;100.00;68379.81;5050845;28;20025;-75
2022/09/16 10:22:29;;;;;;;8.03;1.73;;;;;;;-142.57;100.00;68379.81;5083593;28;19912;-77
2022/09/16 10:25:00;;;;;;;4.35;1.38;;;;;;;-142.57;100.00;68379.81;5055449;28;20056;-78
2022/09/16 10:27:34;;;;;;;2.63;1.08;;;;;;;-142.57;100.00;68379.81;5049549;28;20116;-76
2022/09/16 10:30:15;;;;;;;7.72;1.77;;;;;;;-142.57;100.00;68379.81;5052287;28;20471;-77
2022/09/16 10:33:00;;;;;;;3.58;1.15;;;;;;;-142.57;100.00;68379.81;5052444;28;20060;-77
2022/09/16 10:35:29;;;;;;;6.80;1.90;;;;;;;-142.57;100.00;68379.81;5057199;28;20036;-78
2022/09/16 10:37:57;;;;;;;11.77;2.47;;;;;;;-142.57;100.00;68379.81;5041529;28;20047;-78
2022/09/16 10:40:24;;;;;;;5.07;2.13;;;;;;;-142.57;100.00;68379.81;5051491;28;20439;-77
2022/09/16 10:42:52;;;;;;;5.80;2.10;;;;;;;-142.57;100.00;68379.81;5044812;28;20029;-78
2022/09/16 10:45:26;;;;;;;6.50;2.30;;;;;;;-142.57;100.00;68379.81;5044757;28;20021;-75
2022/09/16 10:47:58;;;;;;;4.57;2.70;;;;;;;-142.57;100.00;68379.81;5050174;28;20033;-74
2022/09/16 10:50:24;;;;;;;8.38;3.15;;;;;;;-142.57;100.00;68379.81;5056804;28;20083;-75
2022/09/16 10:52:50;;;;;;;8.70;3.35;;;;;;;-142.57;100.00;68379.81;5051521;28;20071;-73
2022/09/16 10:55:18;;;;;;;4.35;2.47;;;;;;;-142.57;100.00;68379.81;5015089;28;20597;-76
2022/09/16 10:57:43;;;;;;;10.80;2.58;;;;;;;-142.57;100.00;68379.81;5048475;28;20083;-74
2022/09/16 11:00:13;;;;;;;3.53;2.17;;;;;;;-142.57;100.00;68379.81;5020600;28;20033;-73
2022/09/16 11:03:00;;;;;;;6.22;2.00;;;;;;;-142.57;100.00;68379.81;5048141;28;20546;-73
2022/09/16 11:06:19;;;;;;;4.50;1.98;;;;;;;-142.57;100.00;68379.81;5037017;28;20819;-75
2022/09/16 11:09:00;;;;;;;3.85;1.30;;;;;;;-142.57;100.00;68379.81;5049559;28;20407;-75
2022/09/16 11:12:00;;;;;;;4.35;1.70;;;;;;;-142.57;100.00;68379.81;5057430;28;20517;-74
2022/09/16 11:14:47;;;;;;;4.13;1.85;;;;;;;-142.57;100.00;68379.81;5035888;28;20044;-73
2022/09/16 11:17:22;;;;;;;3.35;1.02;;;;;;;-142.57;100.00;68379.81;5070187;28;20025;-75
2022/09/16 11:20:06;;;;;;;;;;;;;;;-142.57;100.00;68379.81;5052996;28;20032;-75
2022/09/16 11:22:46;;;;;;;3.05;1.13;;;;;;;-142.57;100.00;68379.81;5050719;28;19920;-73
2022/09/16 11:25:29;;;;;;;3.50;1.30;;;;;;;-142.57;100.00;68379.81;5035464;28;20498;-77
2022/09/16 11:28:15;;;;;;;2.72;1.17;;;;;;;-142.57;100.00;68379.81;5047433;28;20040;-79